Terminal Aerodrome Forecast
Issued by NWS

Home | Current Version | Previous Version | Text Only | Print | Product List | Glossary On
Versions: 1 2 3 4 5 6 7 8 9 10 11 12 13 14
000
FTUS44 KLIX 242325
TAFGPT
TAF
KGPT 242325Z 2500/2524 13017G21KT P6SM BKN008 OVC016
     FM250700 17010KT P6SM BKN008
     FM251200 21009KT P6SM VCTS BKN008 BKN025CB=

USA.gov is the U.S. government's official web portal to all federal, state and local government web resources and services.